Time;durP1;ratioP1;P1;durP2;ratioP2;P2;SDS_P1;SDS_P2;PMS_P1;PMS_P2;Temp;Humidity;BMP_temperature;BMP_pressure;BME280_temperature;BME280_humidity;BME280_pressure;Samples;Min_cycle;Max_cycle;Signal;HPM_P1;HPM_P2
2024/01/05 00:00:37;;;;;;;0.00;0.00;;;7.00;99.90;;;;;;5052077;28;20323;-71
2024/01/05 00:03:03;;;;;;;0.00;0.00;;;7.00;99.90;;;;;;5052966;28;20637;-71
2024/01/05 00:05:29;;;;;;;0.00;0.00;;;7.00;99.90;;;;;;5053010;28;20177;-71
2024/01/05 00:07:55;;;;;;;0.00;0.00;;;7.00;99.90;;;;;;5052886;28;20185;-72
2024/01/05 00:10:21;;;;;;;0.00;0.00;;;7.00;99.90;;;;;;5053337;28;20174;-71
2024/01/05 00:12:46;;;;;;;0.00;0.00;;;7.00;99.90;;;;;;5052647;28;20181;-72
2024/01/05 00:15:13;;;;;;;0.00;0.00;;;7.00;99.90;;;;;;5052859;28;20216;-72
2024/01/05 00:17:38;;;;;;;0.00;0.00;;;7.00;99.90;;;;;;5052702;28;20575;-72
2024/01/05 00:20:08;;;;;;;0.00;0.00;;;7.00;99.90;;;;;;5052918;28;20300;-72
2024/01/05 00:22:34;;;;;;;0.00;0.00;;;7.00;99.90;;;;;;5052271;28;20186;-72
2024/01/05 00:24:59;;;;;;;0.00;0.00;;;7.00;99.90;;;;;;5052806;28;20197;-72
2024/01/05 00:27:25;;;;;;;0.00;0.00;;;7.00;99.90;;;;;;5052791;28;20251;-72
2024/01/05 00:29:50;;;;;;;0.00;0.00;;;7.10;99.90;;;;;;5052478;28;20679;-71
2024/01/05 00:32:16;;;;;;;0.00;0.00;;;7.00;99.90;;;;;;5052529;28;20193;-72
2024/01/05 00:34:42;;;;;;;0.00;0.00;;;7.10;99.90;;;;;;5051289;28;20221;-72
2024/01/05 00:37:07;;;;;;;0.00;0.00;;;7.10;99.90;;;;;;5052739;28;20185;-72
2024/01/05 00:39:33;;;;;;;0.00;0.00;;;7.10;99.90;;;;;;5052288;28;20190;-72
2024/01/05 00:42:01;;;;;;;0.00;0.00;;;7.10;99.90;;;;;;5052119;28;20235;-73
2024/01/05 00:44:27;;;;;;;0.00;0.00;;;7.00;99.90;;;;;;5052631;28;20261;-72
2024/01/05 00:46:53;;;;;;;0.00;0.00;;;7.00;99.90;;;;;;5051990;28;20276;-72
2024/01/05 00:49:18;;;;;;;0.00;0.00;;;7.00;99.90;;;;;;5051051;28;20185;-72
2024/01/05 00:51:44;;;;;;;0.00;0.00;;;7.00;99.90;;;;;;5052233;28;20196;-71
2024/01/05 00:54:09;;;;;;;0.00;0.00;;;7.00;99.90;;;;;;5052135;28;20697;-72
2024/01/05 00:56:35;;;;;;;0.00;0.00;;;6.90;99.90;;;;;;5052044;28;20174;-72
2024/01/05 00:59:00;;;;;;;0.00;0.00;;;6.90;99.90;;;;;;5052175;28;20660;-71
2024/01/05 01:01:26;;;;;;;0.00;0.00;;;6.80;99.90;;;;;;5052178;28;20281;-71
2024/01/05 01:03:51;;;;;;;0.00;0.00;;;6.80;99.90;;;;;;5050275;28;20266;-72
2024/01/05 01:06:17;;;;;;;0.00;0.00;;;6.80;99.90;;;;;;5051511;28;20170;-72
2024/01/05 01:08:42;;;;;;;0.00;0.00;;;6.80;99.90;;;;;;5051971;28;20213;-72
2024/01/05 01:11:14;;;;;;;0.00;0.00;;;6.80;99.90;;;;;;5051654;28;20190;-72
2024/01/05 01:13:41;;;;;;;0.00;0.00;;;6.80;99.90;;;;;;5051986;28;20177;-72
2024/01/05 01:16:07;;;;;;;0.00;0.00;;;6.80;99.90;;;;;;5050298;28;20688;-72
2024/01/05 01:18:33;;;;;;;0.00;0.00;;;6.80;99.90;;;;;;5051499;28;20304;-73
2024/01/05 01:20:58;;;;;;;0.00;0.00;;;6.80;99.90;;;;;;5050691;28;20193;-72
2024/01/05 01:23:24;;;;;;;0.00;0.00;;;6.80;99.90;;;;;;5051367;28;20275;-72
2024/01/05 01:25:49;;;;;;;0.22;0.22;;;6.90;99.90;;;;;;5050391;28;20188;-72
2024/01/05 01:28:15;;;;;;;0.00;0.00;;;6.90;99.90;;;;;;5051541;28;20544;-72
2024/01/05 01:30:40;;;;;;;0.10;0.10;;;6.90;99.90;;;;;;5051603;28;20185;-72
2024/01/05 01:33:06;;;;;;;0.17;0.15;;;6.90;99.90;;;;;;5050324;28;20178;-72
2024/01/05 01:35:31;;;;;;;0.00;0.00;;;7.00;99.90;;;;;;5051148;28;20217;-72
2024/01/05 01:37:57;;;;;;;0.00;0.00;;;7.00;99.90;;;;;;5051247;28;20204;-72
2024/01/05 01:40:23;;;;;;;0.00;0.00;;;7.00;99.90;;;;;;5051330;28;20243;-71
2024/01/05 01:42:49;;;;;;;0.20;0.13;;;7.00;99.90;;;;;;5050765;28;20235;-72
2024/01/05 01:45:15;;;;;;;0.00;0.00;;;7.00;99.90;;;;;;5051601;28;20170;-72
2024/01/05 01:47:41;;;;;;;0.00;0.00;;;7.00;99.90;;;;;;5051192;28;20247;-72
2024/01/05 01:50:07;;;;;;;0.00;0.00;;;7.00;99.90;;;;;;5051024;28;20280;-73
2024/01/05 01:52:35;;;;;;;0.00;0.00;;;7.00;99.90;;;;;;5049877;28;20228;-72
2024/01/05 01:55:00;;;;;;;0.00;0.00;;;7.00;99.90;;;;;;5049684;28;20551;-71
2024/01/05 01:57:26;;;;;;;0.00;0.00;;;7.00;99.90;;;;;;5051280;28;20208;-72
2024/01/05 01:59:52;;;;;;;0.10;0.10;;;6.90;99.90;;;;;;5050656;28;20181;-73
2024/01/05 02:02:18;;;;;;;0.00;0.00;;;6.90;99.90;;;;;;5050586;28;20177;-72
2024/01/05 02:04:45;;;;;;;0.00;0.00;;;6.90;99.90;;;;;;5050695;28;20260;-72
2024/01/05 02:07:11;;;;;;;0.00;0.00;;;6.90;99.90;;;;;;5050755;28;20186;-72
2024/01/05 02:09:36;;;;;;;0.00;0.00;;;6.90;99.90;;;;;;5050992;28;20181;-71
2024/01/05 02:12:02;;;;;;;0.00;0.00;;;6.90;99.90;;;;;;5050890;28;20177;-72
2024/01/05 02:14:28;;;;;;;0.10;0.10;;;6.90;99.90;;;;;;5049312;28;20794;-72
2024/01/05 02:16:54;;;;;;;0.47;0.47;;;6.90;99.90;;;;;;5050826;28;20181;-74
2024/01/05 02:19:20;;;;;;;0.00;0.00;;;6.90;99.90;;;;;;5051859;28;20182;-72
2024/01/05 02:21:50;;;;;;;0.13;0.13;;;6.90;99.90;;;;;;5049461;28;20181;-74
2024/01/05 02:24:15;;;;;;;0.00;0.00;;;6.80;99.90;;;;;;5050548;28;20311;-73
2024/01/05 02:26:41;;;;;;;0.00;0.00;;;6.80;99.90;;;;;;5050667;28;20253;-72
2024/01/05 02:29:06;;;;;;;0.00;0.00;;;6.80;99.90;;;;;;5050407;28;20550;-73
2024/01/05 02:31:32;;;;;;;0.00;0.00;;;6.80;99.90;;;;;;5049257;28;20193;-73
2024/01/05 02:33:57;;;;;;;0.00;0.00;;;6.80;99.90;;;;;;5050200;28;20189;-72
2024/01/05 02:36:23;;;;;;;0.00;0.00;;;6.70;99.90;;;;;;5050462;28;20192;-72
2024/01/05 02:38:48;;;;;;;0.00;0.00;;;6.60;99.90;;;;;;5050454;28;20182;-72
2024/01/05 02:41:14;;;;;;;0.00;0.00;;;6.60;99.90;;;;;;5050099;28;20221;-73
2024/01/05 02:43:39;;;;;;;0.00;0.00;;;6.50;99.90;;;;;;5050026;28;20181;-73
2024/01/05 02:46:05;;;;;;;0.00;0.00;;;6.50;99.90;;;;;;5049716;28;20637;-73
2024/01/05 02:48:30;;;;;;;0.00;0.00;;;6.50;99.90;;;;;;5049941;28;20207;-73
2024/01/05 02:50:56;;;;;;;0.00;0.00;;;6.40;99.90;;;;;;5048980;28;20199;-72
2024/01/05 02:53:21;;;;;;;0.00;0.00;;;6.40;99.90;;;;;;5050257;28;20213;-72
2024/01/05 02:55:47;;;;;;;0.00;0.00;;;6.40;99.90;;;;;;5049965;28;20934;-71
2024/01/05 02:58:13;;;;;;;0.00;0.00;;;6.40;99.90;;;;;;5048645;28;20679;-72
2024/01/05 03:00:38;;;;;;;0.00;0.00;;;6.30;99.90;;;;;;5050082;28;20637;-72
2024/01/05 03:03:04;;;;;;;0.00;0.00;;;6.30;99.90;;;;;;5049990;28;20645;-73
2024/01/05 03:05:30;;;;;;;0.00;0.00;;;6.30;99.90;;;;;;5050147;28;20182;-73
2024/01/05 03:07:56;;;;;;;0.00;0.00;;;6.30;99.90;;;;;;5050360;28;20545;-71
2024/01/05 03:10:21;;;;;;;0.00;0.00;;;6.30;99.90;;;;;;5050214;28;20505;-72
2024/01/05 03:12:48;;;;;;;0.00;0.00;;;6.30;99.90;;;;;;5050370;28;20181;-71
2024/01/05 03:15:14;;;;;;;0.00;0.00;;;6.20;99.90;;;;;;5049903;28;20213;-71
2024/01/05 03:17:39;;;;;;;0.00;0.00;;;6.20;99.90;;;;;;5050112;28;20203;-71
2024/01/05 03:20:05;;;;;;;0.00;0.00;;;6.20;99.90;;;;;;5059855;28;20185;-71
2024/01/05 03:22:31;;;;;;;0.00;0.00;;;6.10;99.90;;;;;;5049777;28;20180;-71
2024/01/05 03:24:56;;;;;;;0.00;0.00;;;6.00;99.90;;;;;;5049901;28;20814;-72
2024/01/05 03:27:22;;;;;;;0.00;0.00;;;6.00;99.90;;;;;;5050076;28;20197;-72
2024/01/05 03:29:47;;;;;;;0.00;0.00;;;6.00;99.90;;;;;;5050205;28;20224;-72
2024/01/05 03:32:13;;;;;;;0.00;0.00;;;5.90;99.90;;;;;;5048902;28;20520;-72
2024/01/05 03:34:38;;;;;;;0.00;0.00;;;5.90;99.90;;;;;;5049878;28;20219;-71
2024/01/05 03:37:04;;;;;;;0.00;0.00;;;5.90;99.90;;;;;;5049990;28;20215;-72
2024/01/05 03:39:31;;;;;;;0.00;0.00;;;5.80;99.90;;;;;;5049961;28;20268;-72
2024/01/05 03:41:56;;;;;;;0.00;0.00;;;5.80;99.90;;;;;;5049865;28;20217;-72
2024/01/05 03:44:22;;;;;;;0.00;0.00;;;5.80;99.90;;;;;;5050009;28;20184;-72
2024/01/05 03:46:50;;;;;;;0.00;0.00;;;5.80;99.90;;;;;;5049451;28;20182;-72
2024/01/05 03:49:16;;;;;;;1.27;0.85;;;5.80;99.90;;;;;;5049707;28;20169;-71
2024/01/05 03:51:42;;;;;;;0.03;0.03;;;5.80;99.90;;;;;;5049538;28;20549;-71
2024/01/05 03:54:07;;;;;;;0.00;0.00;;;5.80;99.90;;;;;;5049648;28;20602;-72
2024/01/05 03:56:46;;;;;;;0.10;0.10;;;5.90;99.90;;;;;;5050112;28;20189;-72
2024/01/05 03:59:11;;;;;;;0.00;0.00;;;5.90;99.90;;;;;;5053295;28;20185;-72
2024/01/05 04:01:49;;;;;;;0.00;0.00;;;5.90;99.90;;;;;;5053137;28;20177;-72
2024/01/05 04:04:14;;;;;;;0.00;0.00;;;5.90;99.90;;;;;;5052884;28;20165;-71
2024/01/05 04:06:40;;;;;;;0.00;0.00;;;6.00;99.90;;;;;;5052775;28;20185;-71
2024/01/05 04:09:09;;;;;;;0.03;0.03;;;6.00;99.90;;;;;;5053441;28;20223;-72
2024/01/05 04:11:36;;;;;;;0.00;0.00;;;6.00;99.90;;;;;;5053286;28;20188;-72
2024/01/05 04:14:02;;;;;;;0.00;0.00;;;5.90;99.90;;;;;;5053121;28;20173;-72
2024/01/05 04:16:28;;;;;;;0.00;0.00;;;5.90;99.90;;;;;;5053043;28;20655;-72
2024/01/05 04:18:53;;;;;;;0.00;0.00;;;5.90;99.90;;;;;;5052833;28;20530;-72
2024/01/05 04:21:19;;;;;;;0.00;0.00;;;5.90;99.90;;;;;;5053079;28;20185;-72
2024/01/05 04:23:44;;;;;;;0.00;0.00;;;5.90;99.90;;;;;;5050802;28;20182;-75
2024/01/05 04:26:10;;;;;;;0.00;0.00;;;5.90;99.90;;;;;;5052959;28;20530;-71
2024/01/05 04:28:35;;;;;;;0.00;0.00;;;5.90;99.90;;;;;;5052586;28;20583;-68
2024/01/05 04:31:01;;;;;;;0.00;0.00;;;5.90;99.90;;;;;;5053191;28;20178;-70
2024/01/05 04:33:26;;;;;;;0.00;0.00;;;5.90;99.90;;;;;;5052895;28;20185;-70
2024/01/05 04:35:52;;;;;;;0.00;0.00;;;5.90;99.90;;;;;;5053069;28;20629;-70
2024/01/05 04:38:17;;;;;;;0.00;0.00;;;5.90;99.90;;;;;;5052827;28;20174;-70
2024/01/05 04:40:43;;;;;;;0.00;0.00;;;5.90;99.90;;;;;;5051852;28;20227;-67
2024/01/05 04:43:08;;;;;;;0.20;0.20;;;5.90;99.90;;;;;;5053141;28;20173;-67
2024/01/05 04:45:37;;;;;;;0.00;0.00;;;5.90;99.90;;;;;;5053023;28;20275;-62
2024/01/05 04:48:03;;;;;;;0.00;0.00;;;5.90;99.90;;;;;;5049949;28;20181;-66
2024/01/05 04:50:28;;;;;;;0.00;0.00;;;6.00;99.90;;;;;;5052437;28;20186;-65
2024/01/05 04:52:54;;;;;;;0.00;0.00;;;6.10;99.90;;;;;;5051098;28;20193;-69
2024/01/05 04:55:20;;;;;;;0.00;0.00;;;6.20;99.90;;;;;;5052910;28;20216;-70
2024/01/05 04:57:46;;;;;;;0.00;0.00;;;6.20;99.90;;;;;;5052651;28;20260;-69
2024/01/05 05:00:12;;;;;;;0.00;0.00;;;6.20;99.90;;;;;;5052478;28;20215;-68
2024/01/05 05:02:37;;;;;;;0.00;0.00;;;6.20;99.90;;;;;;5052388;28;20648;-70
2024/01/05 05:05:03;;;;;;;0.00;0.00;;;6.10;99.90;;;;;;5052459;28;20185;-69
2024/01/05 05:07:28;;;;;;;0.00;0.00;;;6.10;99.90;;;;;;5052308;28;20231;-72
2024/01/05 05:09:54;;;;;;;0.00;0.00;;;6.10;99.90;;;;;;5052659;28;20894;-71
2024/01/05 05:12:19;;;;;;;0.40;0.38;;;6.10;99.90;;;;;;5052571;28;20219;-71
2024/01/05 05:14:45;;;;;;;0.00;0.00;;;6.10;99.90;;;;;;5052598;28;20287;-71
2024/01/05 05:17:11;;;;;;;0.00;0.00;;;6.10;99.90;;;;;;5052597;28;20189;-71
2024/01/05 05:19:36;;;;;;;0.00;0.00;;;6.10;99.90;;;;;;5052516;28;20173;-69
2024/01/05 05:22:02;;;;;;;0.00;0.00;;;6.10;99.90;;;;;;5052533;28;20584;-71
2024/01/05 05:24:28;;;;;;;0.00;0.00;;;6.10;99.90;;;;;;5052595;28;20173;-71
2024/01/05 05:26:53;;;;;;;0.00;0.00;;;6.10;99.90;;;;;;5050974;28;20173;-72
2024/01/05 05:29:19;;;;;;;0.00;0.00;;;6.10;99.90;;;;;;5052392;28;20205;-73
2024/01/05 05:31:44;;;;;;;0.00;0.00;;;6.10;99.90;;;;;;5052295;28;20178;-71
2024/01/05 05:34:10;;;;;;;0.43;0.43;;;6.10;99.90;;;;;;5052168;28;20200;-72
2024/01/05 05:36:35;;;;;;;0.00;0.00;;;6.10;99.90;;;;;;5052447;28;20201;-69
2024/01/05 05:39:01;;;;;;;0.00;0.00;;;6.10;99.90;;;;;;5052256;28;20576;-70
2024/01/05 05:41:26;;;;;;;0.00;0.00;;;6.20;99.90;;;;;;5051840;28;20233;-69
2024/01/05 05:43:52;;;;;;;0.00;0.00;;;6.20;99.90;;;;;;5052116;28;20215;-70
2024/01/05 05:46:18;;;;;;;0.00;0.00;;;6.20;99.90;;;;;;5051953;28;20297;-70
2024/01/05 05:48:44;;;;;;;0.00;0.00;;;6.10;99.90;;;;;;5041661;28;20182;-72
2024/01/05 05:51:11;;;;;;;0.00;0.00;;;6.20;99.90;;;;;;5050856;28;20231;-69
2024/01/05 05:53:36;;;;;;;0.00;0.00;;;6.40;99.90;;;;;;5051303;28;20645;-69
2024/01/05 05:56:02;;;;;;;0.17;0.17;;;6.50;99.90;;;;;;5051524;28;20221;-69
2024/01/05 05:58:27;;;;;;;0.00;0.00;;;6.50;99.90;;;;;;5051406;28;20267;-68
2024/01/05 06:00:53;;;;;;;0.00;0.00;;;6.50;99.90;;;;;;5051958;28;20653;-70
2024/01/05 06:03:18;;;;;;;0.00;0.00;;;6.50;99.90;;;;;;5051383;28;20221;-69
2024/01/05 06:05:44;;;;;;;0.88;0.80;;;6.50;99.90;;;;;;5051781;28;20177;-68
2024/01/05 06:08:09;;;;;;;0.00;0.00;;;6.50;99.90;;;;;;5051863;28;20173;-69
2024/01/05 06:10:35;;;;;;;0.03;0.03;;;6.50;99.90;;;;;;5051830;28;20351;-68
2024/01/05 06:13:02;;;;;;;0.00;0.00;;;6.50;99.90;;;;;;5051734;28;20200;-69
2024/01/05 06:15:28;;;;;;;0.00;0.00;;;6.50;99.90;;;;;;5051622;28;20699;-68
2024/01/05 06:17:53;;;;;;;0.00;0.00;;;6.50;99.90;;;;;;5050442;28;20181;-69
2024/01/05 06:20:19;;;;;;;0.00;0.00;;;6.60;99.90;;;;;;5049672;28;20177;-70
2024/01/05 06:22:44;;;;;;;0.05;0.05;;;6.60;99.90;;;;;;5051669;28;20681;-69
2024/01/05 06:25:10;;;;;;;0.00;0.00;;;6.60;99.90;;;;;;5051609;28;20177;-69
2024/01/05 06:27:35;;;;;;;0.00;0.00;;;6.70;99.90;;;;;;5051464;28;20201;-69
2024/01/05 06:30:01;;;;;;;0.00;0.00;;;6.70;99.90;;;;;;5051576;28;20679;-69
2024/01/05 06:32:26;;;;;;;0.00;0.00;;;6.70;99.90;;;;;;5050201;28;20174;-69
2024/01/05 06:34:52;;;;;;;0.00;0.00;;;6.80;99.90;;;;;;5051295;28;20217;-69
2024/01/05 06:37:17;;;;;;;0.00;0.00;;;6.80;99.90;;;;;;5051327;28;20184;-69
2024/01/05 06:39:43;;;;;;;0.00;0.00;;;6.80;99.90;;;;;;5051309;28;20587;-68
2024/01/05 06:42:08;;;;;;;0.00;0.00;;;6.80;99.90;;;;;;5051521;28;20188;-69
2024/01/05 06:44:34;;;;;;;0.00;0.00;;;6.90;99.90;;;;;;5051433;28;20181;-70
2024/01/05 06:46:59;;;;;;;0.00;0.00;;;6.90;99.90;;;;;;5051235;28;20177;-69
2024/01/05 06:49:25;;;;;;;0.00;0.00;;;6.90;99.90;;;;;;5051592;28;20185;-69
2024/01/05 06:51:50;;;;;;;0.00;0.00;;;6.90;99.90;;;;;;5051280;28;20177;-69
2024/01/05 06:54:17;;;;;;;0.00;0.00;;;6.90;99.90;;;;;;5051006;28;20645;-69
2024/01/05 06:56:42;;;;;;;0.00;0.00;;;7.00;99.90;;;;;;5051173;28;20268;-69
2024/01/05 06:59:09;;;;;;;0.00;0.00;;;7.00;99.90;;;;;;5051331;28;20249;-69
2024/01/05 07:01:34;;;;;;;0.10;0.10;;;7.00;99.90;;;;;;5051082;28;20189;-69
2024/01/05 07:04:00;;;;;;;0.05;0.05;;;6.90;99.90;;;;;;5051045;28;20173;-69
2024/01/05 07:06:26;;;;;;;0.00;0.00;;;6.90;99.90;;;;;;5051092;28;20181;-69
2024/01/05 07:08:51;;;;;;;0.00;0.00;;;6.90;99.90;;;;;;5051140;28;20683;-69
2024/01/05 07:11:24;;;;;;;0.03;0.03;;;7.00;99.90;;;;;;5050852;28;20184;-69
2024/01/05 07:13:50;;;;;;;0.00;0.00;;;7.00;99.90;;;;;;5050958;28;20189;-69
2024/01/05 07:16:20;;;;;;;0.00;0.00;;;7.00;99.90;;;;;;5050905;28;20225;-69
2024/01/05 07:18:49;;;;;;;0.00;0.00;;;7.00;99.90;;;;;;5049885;28;20208;-69
2024/01/05 07:21:16;;;;;;;0.00;0.00;;;7.00;99.90;;;;;;5051071;28;20182;-69
2024/01/05 07:23:42;;;;;;;0.00;0.00;;;7.10;99.90;;;;;;5051029;28;20181;-70
2024/01/05 07:26:09;;;;;;;0.00;0.00;;;7.00;99.90;;;;;;5051533;28;20711;-70
2024/01/05 07:28:35;;;;;;;0.00;0.00;;;7.10;99.90;;;;;;5055290;28;20611;-69
2024/01/05 07:31:05;;;;;;;0.00;0.00;;;7.10;99.90;;;;;;5056997;28;20685;-69
2024/01/05 07:33:31;;;;;;;0.00;0.00;;;7.00;99.90;;;;;;5057015;28;20269;-69
2024/01/05 07:35:57;;;;;;;0.00;0.00;;;7.10;99.90;;;;;;5058407;28;20220;-70
2024/01/05 07:38:22;;;;;;;0.00;0.00;;;7.00;99.90;;;;;;5056983;28;20288;-69
2024/01/05 07:40:48;;;;;;;0.00;0.00;;;7.10;99.90;;;;;;5055190;28;20233;-70
2024/01/05 07:43:13;;;;;;;0.38;0.30;;;7.10;99.90;;;;;;5054735;28;20173;-70
2024/01/05 07:45:39;;;;;;;0.00;0.00;;;7.10;99.90;;;;;;5054501;28;20212;-69
2024/01/05 07:48:05;;;;;;;0.00;0.00;;;7.10;99.90;;;;;;5054579;28;20565;-69
2024/01/05 07:50:31;;;;;;;0.00;0.00;;;7.10;99.90;;;;;;5054771;28;20268;-69
2024/01/05 07:52:57;;;;;;;0.00;0.00;;;7.10;99.90;;;;;;5054628;28;20182;-69
2024/01/05 07:55:22;;;;;;;0.00;0.00;;;7.10;99.90;;;;;;5054565;28;20294;-70
2024/01/05 07:57:48;;;;;;;0.00;0.00;;;7.10;99.90;;;;;;5054709;28;20185;-70
2024/01/05 08:00:14;;;;;;;0.00;0.00;;;7.10;99.90;;;;;;5054198;28;20185;-69
2024/01/05 08:02:39;;;;;;;0.00;0.00;;;7.20;99.90;;;;;;5055777;28;20232;-68
2024/01/05 08:05:07;;;;;;;0.00;0.00;;;7.20;99.90;;;;;;5054359;28;20188;-70
2024/01/05 08:07:32;;;;;;;0.00;0.00;;;7.20;99.90;;;;;;5054044;28;20177;-69
2024/01/05 08:09:58;;;;;;;0.00;0.00;;;7.10;99.90;;;;;;5053935;28;20659;-70
2024/01/05 08:12:23;;;;;;;0.00;0.00;;;7.10;99.90;;;;;;5052604;28;20194;-69
2024/01/05 08:14:49;;;;;;;0.00;0.00;;;7.10;99.90;;;;;;5053761;28;20219;-69
2024/01/05 08:17:14;;;;;;;0.00;0.00;;;7.10;99.90;;;;;;5053891;28;20232;-69
2024/01/05 08:19:40;;;;;;;0.08;0.08;;;7.20;99.90;;;;;;5053770;28;20251;-69
2024/01/05 08:22:05;;;;;;;0.00;0.00;;;7.20;99.90;;;;;;5053727;28;20512;-69
2024/01/05 08:24:31;;;;;;;0.00;0.00;;;7.20;99.90;;;;;;5053623;28;20170;-70
2024/01/05 08:26:56;;;;;;;0.00;0.00;;;7.20;99.90;;;;;;5053544;28;20181;-70
2024/01/05 08:29:22;;;;;;;0.00;0.00;;;7.20;99.90;;;;;;5053695;28;20516;-70
2024/01/05 08:31:51;;;;;;;0.00;0.00;;;7.10;99.90;;;;;;5053380;28;20191;-70
2024/01/05 08:34:17;;;;;;;0.00;0.00;;;7.10;99.90;;;;;;5053367;28;20632;-70
2024/01/05 08:36:43;;;;;;;0.00;0.00;;;7.10;99.90;;;;;;5053545;28;20192;-70
2024/01/05 08:39:09;;;;;;;0.00;0.00;;;7.20;99.90;;;;;;5053549;28;20574;-70
2024/01/05 08:41:34;;;;;;;0.00;0.00;;;7.20;99.90;;;;;;5053219;28;20229;-69
2024/01/05 08:44:00;;;;;;;0.00;0.00;;;7.20;99.90;;;;;;5052672;28;20181;-70
2024/01/05 08:46:28;;;;;;;0.00;0.00;;;7.20;99.90;;;;;;5053464;28;20173;-69
2024/01/05 08:48:55;;;;;;;0.00;0.00;;;7.30;99.90;;;;;;5053199;28;20184;-70
2024/01/05 08:51:21;;;;;;;0.00;0.00;;;7.30;99.90;;;;;;5053621;28;20200;-69
2024/01/05 08:53:46;;;;;;;0.00;0.00;;;7.30;99.90;;;;;;5053098;28;20181;-69
2024/01/05 08:56:12;;;;;;;0.00;0.00;;;7.40;99.90;;;;;;5053037;28;20228;-70
2024/01/05 08:58:39;;;;;;;0.00;0.00;;;7.40;99.90;;;;;;5052930;28;20644;-70
2024/01/05 09:01:04;;;;;;;0.00;0.00;;;7.40;99.90;;;;;;5053028;28;20242;-70
2024/01/05 09:03:30;;;;;;;0.00;0.00;;;7.40;99.90;;;;;;5053034;28;20536;-69
2024/01/05 09:05:55;;;;;;;0.00;0.00;;;7.50;99.90;;;;;;5051577;28;20631;-69
2024/01/05 09:08:21;;;;;;;0.00;0.00;;;7.60;99.90;;;;;;5052897;28;20178;-69
2024/01/05 09:10:46;;;;;;;0.10;0.10;;;7.60;99.90;;;;;;5051569;28;20173;-70
2024/01/05 09:13:12;;;;;;;0.00;0.00;;;7.70;99.90;;;;;;5052789;28;20664;-70
2024/01/05 09:15:38;;;;;;;0.10;0.10;;;7.70;99.90;;;;;;5052599;28;20217;-70
2024/01/05 09:18:05;;;;;;;0.00;0.00;;;7.80;99.90;;;;;;5052766;28;20535;-68
2024/01/05 09:20:30;;;;;;;0.10;0.10;;;7.90;99.90;;;;;;5052703;28;20188;-70
2024/01/05 09:22:56;;;;;;;0.00;0.00;;;8.00;99.90;;;;;;5051434;28;20173;-70
2024/01/05 09:25:22;;;;;;;0.00;0.00;;;8.00;99.90;;;;;;5052578;28;20185;-69
2024/01/05 09:27:47;;;;;;;0.00;0.00;;;8.10;99.90;;;;;;5034672;28;20545;-69
2024/01/05 09:30:13;;;;;;;0.00;0.00;;;8.10;99.90;;;;;;5052593;28;20173;-70
2024/01/05 09:32:39;;;;;;;0.00;0.00;;;8.10;99.90;;;;;;5052313;28;20170;-69
2024/01/05 09:35:08;;;;;;;0.00;0.00;;;8.10;99.90;;;;;;5052276;28;20286;-69
2024/01/05 09:37:36;;;;;;;0.00;0.00;;;8.10;99.90;;;;;;5052616;28;20173;-69
2024/01/05 09:40:02;;;;;;;0.00;0.00;;;8.20;99.90;;;;;;5051936;28;20311;-69
2024/01/05 09:42:28;;;;;;;0.00;0.00;;;8.20;99.90;;;;;;5052216;28;20169;-70
2024/01/05 09:44:54;;;;;;;0.00;0.00;;;8.30;99.90;;;;;;5052112;28;20531;-70
2024/01/05 09:47:21;;;;;;;0.00;0.00;;;8.40;99.90;;;;;;5052020;28;20231;-70
2024/01/05 09:49:49;;;;;;;0.00;0.00;;;8.50;99.90;;;;;;5052118;28;20539;-69
2024/01/05 09:52:15;;;;;;;0.00;0.00;;;8.60;99.90;;;;;;5051974;28;20264;-70
2024/01/05 09:54:41;;;;;;;0.00;0.00;;;8.80;99.90;;;;;;5050995;28;20296;-70
2024/01/05 09:57:14;;;;;;;0.00;0.00;;;8.90;99.90;;;;;;5052031;28;20209;-70
2024/01/05 09:59:40;;;;;;;0.00;0.00;;;9.00;99.90;;;;;;5051807;28;20177;-69
2024/01/05 10:02:11;;;;;;;0.00;0.00;;;9.10;99.90;;;;;;5052023;28;20246;-68
2024/01/05 10:04:36;;;;;;;0.00;0.00;;;9.10;99.90;;;;;;5051859;28;20212;-69
2024/01/05 10:07:03;;;;;;;0.00;0.00;;;9.10;99.90;;;;;;5051658;28;20636;-70
2024/01/05 10:09:30;;;;;;;0.00;0.00;;;9.10;99.90;;;;;;5051809;28;20216;-70
2024/01/05 10:11:57;;;;;;;0.00;0.00;;;9.10;99.90;;;;;;5050290;28;20177;-70
2024/01/05 10:14:26;;;;;;;0.00;0.00;;;9.00;99.90;;;;;;5051637;28;20189;-70
2024/01/05 10:17:07;;;;;;;0.00;0.00;;;9.00;99.90;;;;;;5051574;28;20169;-69
2024/01/05 10:19:33;;;;;;;0.00;0.00;;;9.00;99.90;;;;;;5051645;28;20265;-70
2024/01/05 10:22:09;;;;;;;0.08;0.08;;;9.00;99.90;;;;;;5050210;28;20177;-70
2024/01/05 10:24:35;;;;;;;0.10;0.10;;;9.00;99.90;;;;;;5051456;28;20173;-70
2024/01/05 10:27:04;;;;;;;0.00;0.00;;;9.00;99.90;;;;;;5051363;28;20295;-69
2024/01/05 10:29:31;;;;;;;0.20;0.20;;;9.10;99.90;;;;;;5051425;28;20184;-69
2024/01/05 10:32:11;;;;;;;0.20;0.20;;;9.00;99.90;;;;;;5049976;28;20653;-70
2024/01/05 10:34:42;;;;;;;0.00;0.00;;;9.00;99.90;;;;;;5051334;28;20205;-70
2024/01/05 10:37:08;;;;;;;0.00;0.00;;;9.00;99.90;;;;;;5051350;28;20176;-70
2024/01/05 10:39:33;;;;;;;0.00;0.00;;;9.00;99.90;;;;;;5051375;28;20268;-69
2024/01/05 10:42:21;;;;;;;0.00;0.00;;;9.10;99.90;;;;;;5051055;28;20744;-70
2024/01/05 10:44:48;;;;;;;0.00;0.00;;;9.20;99.90;;;;;;5051277;28;20172;-71
2024/01/05 10:47:14;;;;;;;0.00;0.00;;;9.20;99.90;;;;;;5051218;28;20173;-70
2024/01/05 10:49:48;;;;;;;0.00;0.00;;;9.30;99.90;;;;;;5051088;28;20173;-70
2024/01/05 10:52:18;;;;;;;0.00;0.00;;;9.30;99.90;;;;;;5051267;28;20197;-68
2024/01/05 10:54:49;;;;;;;0.00;0.00;;;9.40;99.90;;;;;;5051132;28;20559;-69
2024/01/05 10:57:16;;;;;;;0.00;0.00;;;9.40;99.90;;;;;;5051256;28;20177;-69
2024/01/05 10:59:49;;;;;;;0.00;0.00;;;9.50;99.90;;;;;;5051061;28;20189;-70
2024/01/05 11:02:24;;;;;;;0.00;0.00;;;9.50;99.90;;;;;;5050936;28;20173;-69
2024/01/05 11:04:59;;;;;;;0.00;0.00;;;9.50;99.90;;;;;;5051094;28;20173;-70
2024/01/05 11:07:31;;;;;;;0.00;0.00;;;9.50;99.90;;;;;;5055039;28;20535;-69
2024/01/05 11:10:29;;;;;;;0.00;0.00;;;9.50;99.90;;;;;;5055118;28;20636;-69
2024/01/05 11:13:23;;;;;;;0.00;0.00;;;9.50;99.90;;;;;;5055127;28;20177;-70
2024/01/05 11:16:18;;;;;;;0.00;0.00;;;9.50;99.90;;;;;;5053760;28;20570;-70
2024/01/05 11:19:22;;;;;;;0.17;0.17;;;9.50;99.90;;;;;;5054969;28;20180;-70
2024/01/05 11:21:56;;;;;;;0.00;0.00;;;9.60;99.90;;;;;;5054946;28;20578;-70
2024/01/05 11:24:23;;;;;;;0.00;0.00;;;9.60;99.90;;;;;;5053643;28;20173;-70
2024/01/05 11:26:49;;;;;;;0.00;0.00;;;9.60;99.90;;;;;;5053546;28;20180;-70
2024/01/05 11:29:47;;;;;;;0.00;0.00;;;9.70;99.90;;;;;;5054929;28;20177;-70
2024/01/05 11:32:45;;;;;;;0.00;0.00;;;9.80;99.90;;;;;;5054734;28;20196;-70
2024/01/05 11:35:16;;;;;;;0.00;0.00;;;9.80;99.90;;;;;;5054746;28;20221;-69
2024/01/05 11:37:43;;;;;;;0.00;0.00;;;9.90;99.90;;;;;;5054516;28;20637;-70
2024/01/05 11:40:25;;;;;;;0.00;0.00;;;9.90;99.90;;;;;;5054329;28;20236;-69
2024/01/05 11:42:52;;;;;;;0.15;0.15;;;10.00;99.90;;;;;;5054353;28;20193;-70
2024/01/05 11:45:43;;;;;;;0.00;0.00;;;10.10;99.90;;;;;;5053164;28;20633;-70
2024/01/05 11:48:09;;;;;;;0.00;0.00;;;10.10;99.90;;;;;;5054408;28;20177;-70
2024/01/05 11:50:36;;;;;;;0.00;0.00;;;10.20;99.90;;;;;;5054447;28;20169;-69
2024/01/05 11:53:15;;;;;;;0.00;0.00;;;10.20;99.90;;;;;;5054389;28;20184;-69
2024/01/05 11:55:56;;;;;;;0.00;0.00;;;10.30;99.90;;;;;;5054032;28;20741;-70
2024/01/05 11:58:27;;;;;;;0.00;0.00;;;10.30;99.90;;;;;;5054304;28;20177;-70
2024/01/05 12:00:55;;;;;;;0.00;0.00;;;10.30;99.90;;;;;;5052743;28;20178;-70
2024/01/05 12:03:23;;;;;;;0.00;0.00;;;10.40;99.90;;;;;;5053761;28;20571;-69
2024/01/05 12:05:57;;;;;;;0.00;0.00;;;10.40;99.90;;;;;;5054073;28;20185;-69
2024/01/05 12:08:23;;;;;;;0.00;0.00;;;10.30;99.90;;;;;;5054094;28;20181;-69
2024/01/05 12:11:08;;;;;;;0.00;0.00;;;10.30;99.90;;;;;;5053967;28;20181;-69
2024/01/05 12:13:35;;;;;;;0.00;0.00;;;10.20;99.90;;;;;;5053991;28;20188;-69
2024/01/05 12:16:05;;;;;;;0.00;0.00;;;10.20;99.90;;;;;;5053946;28;20217;-70
2024/01/05 12:18:46;;;;;;;0.00;0.00;;;10.10;99.90;;;;;;5051750;28;20200;-68
2024/01/05 12:21:14;;;;;;;0.00;0.00;;;10.10;99.90;;;;;;5053971;28;20173;-69
2024/01/05 12:23:49;;;;;;;0.00;0.00;;;10.10;99.90;;;;;;5053511;28;20215;-69
2024/01/05 12:26:14;;;;;;;0.00;0.00;;;10.10;99.90;;;;;;5053739;28;20586;-69
2024/01/05 12:28:41;;;;;;;0.00;0.00;;;10.00;99.90;;;;;;5053411;28;20205;-69
2024/01/05 12:31:07;;;;;;;0.00;0.00;;;10.00;99.90;;;;;;5053667;28;20288;-69
2024/01/05 12:33:36;;;;;;;0.00;0.00;;;10.00;99.90;;;;;;5053535;28;20178;-69
2024/01/05 12:36:01;;;;;;;0.00;0.00;;;9.90;99.90;;;;;;5053484;28;20267;-70
2024/01/05 12:38:28;;;;;;;0.00;0.00;;;9.90;99.90;;;;;;5053538;28;20169;-68
2024/01/05 12:41:14;;;;;;;0.10;0.10;;;9.90;99.90;;;;;;5053247;28;20222;-69
2024/01/05 12:43:45;;;;;;;0.00;0.00;;;9.90;99.90;;;;;;5053119;28;20193;-69
2024/01/05 12:46:11;;;;;;;0.00;0.00;;;9.90;99.90;;;;;;5053469;28;20184;-69
2024/01/05 12:48:36;;;;;;;0.13;0.13;;;9.90;99.90;;;;;;5053178;28;20610;-69
2024/01/05 12:51:03;;;;;;;0.00;0.00;;;9.90;99.90;;;;;;5053257;28;20672;-69
2024/01/05 12:53:29;;;;;;;0.03;0.03;;;9.80;99.90;;;;;;5053319;28;20174;-70
2024/01/05 12:55:54;;;;;;;0.00;0.00;;;9.80;99.90;;;;;;5053007;28;20224;-69